Detall de PIREP

Printer-friendly versionPDF version

[2015/03/26 17:13:00]
Flight IATA:CT0003
Pilot Number:012
Company ICAO:CAT
Aircraft Type:C750/F
PAX:4
Departing Airport: LICJ
Destination Airport: LIEA
Alternate Airport:LIEO
Online: VATSIM
Route:KAPIL UM871 CAR UM732 SODIO
Flight Level:F260
No Slew and time accel
No pause
Crash detect
Detect pilot in Cockpit between each 30 and 45 minutes
17:13 Zero fuel Weight: 22904 Lbs, Fuel Weight: 5198 Lbs
17:13 VATSIM:LICJ 261650Z 07003KT 020V090 9999 -RA FEW035 BKN060 15/13 Q1005
17:13 VATSIM:LIEA 261650Z 31005KT 270V340 9999 BKN025 12/08 Q1009
17:13 Parking Brakes off
17:18 Take-off
17:18 Take off Weight: 28017 Lbs
17:18 Wind: 051º @ 003 Knots Heading: 248º
17:18 POS N38º 10´ 50´´ E013º 06´ 17´´
17:18 Gear Up: 162 Knots
17:18 Flaps:3 at 162 Knots
17:19 Flaps:2 at 210 Knots
17:19 Flaps:0 at 226 Knots
17:25 TOC
17:25 Fuel Weight: 4755 Lb
17:33 Wind:070º@019 Knots Heading: 292º Ground Speed: 449 Knots Altitude 25761 ft
17:48 Wind:358º@011 Knots Heading: 328º Ground Speed: 423 Knots Altitude 25820 ft
17:49 TOD
17:49 Fuel Weight: 4140 Lb
18:03 Wind:309º@032 Knots Heading: 331º Ground Speed: 188 Knots Altitude 5482 ft
18:06 Flaps:2 at 204 Knots
18:08 Flaps:3 at 171 Knots
18:08 Gear Down: 171 Knots
18:08 Flaps:4 at 153 Knots
18:09 Flaps:5 at 148 Knots
18:12 TouchDown:Rate -193 ft/min Speed: 119 Knots
18:12 Flaps:0 at 69 Knots
18:12 VATSIM:LIEA 261750Z 31004KT 270V350 9999 BKN025 12/08 Q1010
18:12 Land
18:12 Wind:309º@004 Knots
18:12 Heading: 206º
18:12 Flight Duration: 00:54
18:12 Landing Weight: 26765 Lbs
18:12 POS N40º 37´ 41´´ E008º 17´ 18´´
18:16 Parking brakes on
18:16 Block to Block Duration: 01:03
18:16 Final Fuel: 3822 Lbls
18:16 Spent Fuel: 1375 Lbls
18:16 Flight Length: 309 NM
18:16 TOD Land Length: 95 NM

Exportar CSV

Powered by Drupal - Modified by Danger4k